South Bend, Washington
Current Conditions -  °F | °C
As of 1:00 PM on Thursday 18 Dec 2014 (Local Time) from KHQM Reporting Station
Light Rain Light Rain  
Wind Chill: 43°   Ceiling: 2100
Heat Index: 48°   Visibility: 3mi
Dew Point: 47°   Wind: 12mph
Humidity: 96%   Direction: 70°ENE
Pressure: 29.79"   Gusts: NA
Location:  46.66°N, 123.8°W
Report Text: KHQM 182100Z AUTO 07010KT 3SM -RA BR OVC021 09/08 A2979 RMK AO2 P0000 T00890083
Loading
Personal Weather Stations






























Interactive Weather Map New forecast layout! Learn more

10-Day Weather Forecast

Advertisements
Track Severe Weather on mobile